Decoded Metar for KALI (ALICE in TX, USA) (IATA:ALI) | Meteo·Mobile Aviation Weather
aviador You're here:

KALI Decoded Metar

ALICE in TX, USA
Report Time2018-09-21 03:53:00
UTC Time2018-09-21 04:17:19
Flight Rules vfr VFR
Wind140° at 08 kt
W.Decomp.*RWY 13: 8.0 kt HW 0.6 kt RCW
RWY 17: 6.5 kt HW 4.7 kt LCW
W.Rank140° ranks 1
Current wind is below 140° avg. (10.3)
Visibility9999 m
Phenomena:N/A
Clouds:N/A
Expected CloudBase > 800 ft AGL from Temp-Dew spread
CeilingNone
Temp26°C (ISA +11)
Dew Point24°C (89% RH)
QNH1013 hPa
Density Alt1,877 ft
Elevation174 ft
Report Wrong Elevation
Raw Report
KALI 210353Z AUTO 14008KT 10SM CLR 26/24 A2991 RMK AO2 SLP125
T02610244=

Extra information for KALI:More info

Metar Taf Metar & Taf Last 4 Metars F.Rules Stats Wind Profile Meteogram Temp Stats Airport Information Weather charts Add Link Nearby VenuesMetar ALERT Operation Metar Decoded Social comments

AIRNAV info for KALI